Time;durP1;ratioP1;P1;durP2;ratioP2;P2;SDS_P1;SDS_P2;PMS_P1;PMS_P2;Temp;Humidity;BMP_temperature;BMP_pressure;BME280_temperature;BME280_humidity;BME280_pressure;Samples;Min_cycle;Max_cycle;Signal;HPM_P1;HPM_P2
2022/01/07 00:02:03;;;;;;;14.23;6.63;;;2.00;99.90;;;;;;5050731;28;20553;-61
2022/01/07 00:04:33;;;;;;;18.10;7.53;;;2.00;99.90;;;;;;5053137;28;20469;-61
2022/01/07 00:07:02;;;;;;;10.17;6.80;;;2.00;99.90;;;;;;5053376;28;20461;-61
2022/01/07 00:09:29;;;;;;;10.10;5.70;;;2.00;99.90;;;;;;5051694;28;20482;-61
2022/01/07 00:11:59;;;;;;;12.17;7.87;;;2.00;99.90;;;;;;5049151;28;20554;-61
2022/01/07 00:14:26;;;;;;;9.73;6.50;;;2.00;99.90;;;;;;5051002;28;20903;-61
2022/01/07 00:16:53;;;;;;;16.43;6.23;;;2.00;99.90;;;;;;5054066;28;20466;-61
2022/01/07 00:19:20;;;;;;;17.70;6.43;;;2.00;99.90;;;;;;5047573;28;20458;-61
2022/01/07 00:21:47;;;;;;;16.77;6.97;;;2.00;99.90;;;;;;5049827;28;20504;-61
2022/01/07 00:24:16;;;;;;;13.37;5.93;;;2.00;99.90;;;;;;5050443;28;20536;-61
2022/01/07 00:26:43;;;;;;;13.40;6.93;;;2.10;99.90;;;;;;5053363;28;20462;-61
2022/01/07 00:29:10;;;;;;;15.27;6.87;;;2.10;99.90;;;;;;5050658;28;20496;-61
2022/01/07 00:31:37;;;;;;;11.90;7.30;;;2.10;99.90;;;;;;5050975;28;20522;-61
2022/01/07 00:34:06;;;;;;;12.17;7.30;;;2.10;99.90;;;;;;5050447;28;20519;-61
2022/01/07 00:36:36;;;;;;;14.60;7.17;;;2.10;99.90;;;;;;5053129;28;20462;-62
2022/01/07 00:39:04;;;;;;;9.60;6.53;;;2.00;99.90;;;;;;5051888;28;20463;-62
2022/01/07 00:41:32;;;;;;;10.90;6.50;;;2.10;99.90;;;;;;5049122;28;20489;-61
2022/01/07 00:43:59;;;;;;;9.07;6.10;;;2.10;99.90;;;;;;5051816;28;20458;-62
2022/01/07 00:46:26;;;;;;;13.63;6.47;;;2.00;99.90;;;;;;5052055;28;20500;-62
2022/01/07 00:48:53;;;;;;;10.50;6.10;;;2.00;99.90;;;;;;5051915;28;20547;-62
2022/01/07 00:51:20;;;;;;;12.90;6.13;;;2.00;99.90;;;;;;5053712;28;20505;-63
2022/01/07 00:53:47;;;;;;;14.33;6.70;;;2.00;99.90;;;;;;5050070;28;20462;-61
2022/01/07 00:56:14;;;;;;;12.07;5.57;;;2.00;99.90;;;;;;5051572;28;20466;-61
2022/01/07 00:58:42;;;;;;;13.70;6.90;;;1.90;99.90;;;;;;5052608;28;20463;-61
2022/01/07 01:01:09;;;;;;;14.43;6.67;;;2.00;99.90;;;;;;5051323;28;20466;-61
2022/01/07 01:03:36;;;;;;;11.13;5.53;;;1.90;99.90;;;;;;5050424;28;20536;-61
2022/01/07 01:06:04;;;;;;;12.27;6.40;;;2.00;99.90;;;;;;5051825;28;20470;-62
2022/01/07 01:08:30;;;;;;;9.73;6.00;;;2.00;99.90;;;;;;5052300;28;20462;-61
2022/01/07 01:10:58;;;;;;;10.10;5.80;;;2.00;99.90;;;;;;5051581;28;20462;-61
2022/01/07 01:13:31;;;;;;;9.00;6.00;;;2.00;99.90;;;;;;5052385;28;20519;-61
2022/01/07 01:15:59;;;;;;;11.70;6.57;;;2.00;99.90;;;;;;5050051;28;20556;-61
2022/01/07 01:18:26;;;;;;;11.77;5.53;;;2.00;99.90;;;;;;5050299;28;20462;-61
2022/01/07 01:20:59;;;;;;;10.03;6.10;;;2.00;99.90;;;;;;5052237;28;20497;-61
2022/01/07 01:23:26;;;;;;;12.60;6.27;;;2.00;99.90;;;;;;5047342;28;20447;-61
2022/01/07 01:25:53;;;;;;;12.17;6.90;;;2.00;99.90;;;;;;5038406;28;20467;-61
2022/01/07 01:28:20;;;;;;;13.20;6.40;;;2.00;99.90;;;;;;5037427;28;20521;-61
2022/01/07 01:30:47;;;;;;;13.83;5.30;;;2.00;99.90;;;;;;5039372;28;20458;-61
2022/01/07 01:33:15;;;;;;;12.30;5.83;;;2.00;99.90;;;;;;5038795;28;20546;-61
2022/01/07 01:35:42;;;;;;;6.87;5.50;;;2.00;99.90;;;;;;5054720;28;20825;-61
2022/01/07 01:38:09;;;;;;;8.27;5.57;;;2.00;99.90;;;;;;5055708;28;20506;-62
2022/01/07 01:40:36;;;;;;;14.80;6.27;;;2.00;99.90;;;;;;5055858;28;20838;-62
2022/01/07 01:43:04;;;;;;;11.97;6.07;;;2.00;99.90;;;;;;5044502;28;20470;-61
2022/01/07 01:45:31;;;;;;;11.23;6.03;;;2.00;99.90;;;;;;5038675;28;20770;-61
2022/01/07 01:48:01;;;;;;;8.03;5.37;;;2.00;99.90;;;;;;5037215;28;20522;-62
2022/01/07 01:50:29;;;;;;;11.27;5.10;;;2.00;99.90;;;;;;5036947;28;20568;-61
2022/01/07 01:52:57;;;;;;;12.13;6.30;;;2.00;99.90;;;;;;5038867;28;20467;-61
2022/01/07 01:55:26;;;;;;;13.10;5.87;;;2.00;99.90;;;;;;5050638;28;20552;-61
2022/01/07 01:57:55;;;;;;;9.40;5.57;;;2.00;99.90;;;;;;5037106;28;20517;-62
2022/01/07 02:00:23;;;;;;;11.10;5.90;;;2.00;99.90;;;;;;5036550;28;20533;-62
2022/01/07 02:02:51;;;;;;;13.67;6.20;;;2.00;99.90;;;;;;5039438;28;20477;-61
2022/01/07 02:05:18;;;;;;;16.43;6.20;;;1.90;99.90;;;;;;5041319;28;20459;-61
2022/01/07 02:07:47;;;;;;;10.27;6.90;;;1.90;99.90;;;;;;5036876;28;20475;-62
2022/01/07 02:10:16;;;;;;;10.73;6.33;;;2.00;99.90;;;;;;5041930;28;20569;-62
2022/01/07 02:12:44;;;;;;;11.33;5.93;;;2.00;99.90;;;;;;5043658;28;20547;-62
2022/01/07 02:15:13;;;;;;;12.70;7.57;;;1.90;99.90;;;;;;5037170;28;20471;-61
2022/01/07 02:17:42;;;;;;;16.93;6.47;;;1.90;99.90;;;;;;5045786;28;20537;-62
2022/01/07 02:20:12;;;;;;;12.60;6.53;;;1.90;99.90;;;;;;5040887;28;20506;-62
2022/01/07 02:22:39;;;;;;;12.00;6.30;;;1.90;99.90;;;;;;5050491;28;20469;-62
2022/01/07 02:25:07;;;;;;;10.37;7.00;;;1.90;99.90;;;;;;5051864;28;20458;-62
2022/01/07 02:27:39;;;;;;;14.93;6.63;;;1.90;99.90;;;;;;5043213;28;20563;-62
2022/01/07 02:30:09;;;;;;;9.17;6.10;;;1.90;99.90;;;;;;5039977;28;20553;-62
2022/01/07 02:32:36;;;;;;;13.60;6.60;;;1.90;99.90;;;;;;5040447;28;20532;-62
2022/01/07 02:35:12;;;;;;;13.03;5.97;;;1.90;99.90;;;;;;5045740;28;20826;-62
2022/01/07 02:37:39;;;;;;;6.93;5.60;;;1.90;99.90;;;;;;5041086;28;20901;-63
2022/01/07 02:40:08;;;;;;;7.27;5.57;;;1.80;99.90;;;;;;5040245;28;20517;-62
2022/01/07 02:42:36;;;;;;;12.10;7.67;;;1.80;99.90;;;;;;5040324;28;20752;-62
2022/01/07 02:45:08;;;;;;;13.00;7.07;;;1.80;99.90;;;;;;5045994;28;20523;-63
2022/01/07 02:47:46;;;;;;;12.20;6.40;;;1.70;99.90;;;;;;5043841;28;20627;-63
2022/01/07 02:50:15;;;;;;;11.70;6.60;;;1.70;99.90;;;;;;5039676;28;20555;-63
2022/01/07 02:52:42;;;;;;;13.37;6.60;;;1.70;99.90;;;;;;5055837;28;20474;-63
2022/01/07 02:55:09;;;;;;;13.70;7.10;;;1.70;99.90;;;;;;5055458;28;21038;-63
2022/01/07 02:57:36;;;;;;;25.83;9.07;;;1.70;99.90;;;;;;5042464;28;20466;-63
2022/01/07 03:00:05;;;;;;;11.87;7.03;;;1.70;99.90;;;;;;5057249;28;20753;-63
2022/01/07 03:02:36;;;;;;;22.97;6.87;;;1.70;99.90;;;;;;5057550;28;20467;-63
2022/01/07 03:05:03;;;;;;;11.73;6.23;;;1.70;99.90;;;;;;5057079;28;20470;-63
2022/01/07 03:07:32;;;;;;;17.03;6.90;;;1.70;99.90;;;;;;5057689;28;20817;-63
2022/01/07 03:09:59;;;;;;;10.13;7.00;;;1.70;99.90;;;;;;5041066;28;20505;-63
2022/01/07 03:12:28;;;;;;;12.93;7.67;;;1.70;99.90;;;;;;5041949;28;20487;-63
2022/01/07 03:14:56;;;;;;;9.83;7.33;;;1.70;99.90;;;;;;5039047;28;20899;-63
2022/01/07 03:17:23;;;;;;;12.27;7.30;;;1.60;99.90;;;;;;5045966;28;20479;-63
2022/01/07 03:19:50;;;;;;;11.53;7.27;;;1.60;99.90;;;;;;5040812;28;20528;-62
2022/01/07 03:22:17;;;;;;;14.67;7.83;;;1.50;99.90;;;;;;5050559;28;20470;-62
2022/01/07 03:24:51;;;;;;;11.57;7.93;;;1.50;99.90;;;;;;5058818;28;20468;-62
2022/01/07 03:27:18;;;;;;;18.23;7.83;;;1.50;99.90;;;;;;5051392;28;20486;-61
2022/01/07 03:29:45;;;;;;;12.13;6.73;;;1.40;99.90;;;;;;5041293;28;20494;-61
2022/01/07 03:32:12;;;;;;;20.37;8.00;;;1.40;99.90;;;;;;5039328;28;20900;-60
2022/01/07 03:34:41;;;;;;;10.17;6.83;;;1.40;99.90;;;;;;5039888;28;20478;-60
2022/01/07 03:37:08;;;;;;;13.23;6.70;;;1.40;99.90;;;;;;5040094;28;20497;-57
2022/01/07 03:39:35;;;;;;;13.33;6.53;;;1.40;99.90;;;;;;5042355;28;20508;-60
2022/01/07 03:42:08;;;;;;;12.10;7.70;;;1.40;99.90;;;;;;5039299;28;20533;-60
2022/01/07 03:44:35;;;;;;;12.93;7.57;;;1.30;99.90;;;;;;5041737;28;20474;-60
2022/01/07 03:47:02;;;;;;;12.80;7.00;;;1.30;99.90;;;;;;5041524;28;20886;-60
2022/01/07 03:49:30;;;;;;;14.30;7.90;;;1.30;99.90;;;;;;5039833;28;20495;-57
2022/01/07 03:51:57;;;;;;;11.13;7.47;;;1.30;99.90;;;;;;5050900;28;20482;-60
2022/01/07 03:54:24;;;;;;;14.30;7.80;;;1.30;99.90;;;;;;5058040;28;20482;-60
2022/01/07 03:56:51;;;;;;;23.17;7.90;;;1.30;99.90;;;;;;5057810;28;20444;-61
2022/01/07 03:59:22;;;;;;;11.10;7.73;;;1.30;99.90;;;;;;5044082;28;20474;-61
2022/01/07 04:01:49;;;;;;;16.87;7.50;;;1.30;99.90;;;;;;5044848;28;20463;-59
2022/01/07 04:04:16;;;;;;;13.03;6.77;;;1.30;99.90;;;;;;5038701;28;20509;-60
2022/01/07 04:06:43;;;;;;;12.60;7.00;;;1.30;99.90;;;;;;5038488;28;20906;-60
2022/01/07 04:09:10;;;;;;;14.17;7.27;;;1.20;99.90;;;;;;5043889;28;20474;-59
2022/01/07 04:11:38;;;;;;;11.67;8.40;;;1.20;99.90;;;;;;5038339;28;20586;-61
2022/01/07 04:14:05;;;;;;;10.67;7.07;;;1.20;99.90;;;;;;5051657;28;20474;-61
2022/01/07 04:16:33;;;;;;;14.23;7.07;;;1.30;99.90;;;;;;5043861;28;20502;-61
2022/01/07 04:19:01;;;;;;;9.03;6.77;;;1.20;99.90;;;;;;5044258;28;20494;-62
2022/01/07 04:21:28;;;;;;;12.73;6.87;;;1.10;99.90;;;;;;5050993;28;20597;-62
2022/01/07 04:23:55;;;;;;;11.53;6.57;;;1.20;99.90;;;;;;5054578;28;20890;-62
2022/01/07 04:26:22;;;;;;;16.27;7.87;;;1.20;99.90;;;;;;5057755;28;20465;-62
2022/01/07 04:28:48;;;;;;;14.23;7.80;;;1.30;99.90;;;;;;5055386;28;20795;-62
2022/01/07 04:31:19;;;;;;;14.03;8.03;;;1.30;99.90;;;;;;5038459;28;20498;-61
2022/01/07 04:33:47;;;;;;;10.43;7.77;;;1.30;99.90;;;;;;5043779;28;20904;-61
2022/01/07 04:36:14;;;;;;;12.47;7.23;;;1.30;99.90;;;;;;5056660;28;20445;-61
2022/01/07 04:38:41;;;;;;;15.83;7.60;;;1.30;99.90;;;;;;5056352;28;20477;-61
2022/01/07 04:41:08;;;;;;;9.63;7.03;;;1.30;99.90;;;;;;5043062;28;20539;-62
2022/01/07 04:43:35;;;;;;;9.07;7.03;;;1.30;99.90;;;;;;5042715;28;20466;-61
2022/01/07 04:46:04;;;;;;;17.03;7.40;;;1.30;99.90;;;;;;5050247;28;20923;-61
2022/01/07 04:48:30;;;;;;;10.53;7.20;;;1.40;99.90;;;;;;5056586;28;20477;-61
2022/01/07 04:50:59;;;;;;;10.67;6.90;;;1.40;99.90;;;;;;5049428;28;20545;-60
2022/01/07 04:53:26;;;;;;;14.33;7.30;;;1.40;99.90;;;;;;5049882;28;20513;-61
2022/01/07 04:55:56;;;;;;;13.63;7.70;;;1.40;99.90;;;;;;5038079;28;20996;-60
2022/01/07 04:58:23;;;;;;;10.97;7.70;;;1.40;99.90;;;;;;5037934;28;20540;-61
2022/01/07 05:00:50;;;;;;;14.77;7.90;;;1.40;99.90;;;;;;5043829;28;20550;-62
2022/01/07 05:03:18;;;;;;;13.67;7.77;;;1.40;99.90;;;;;;5039903;28;20473;-62
2022/01/07 05:05:49;;;;;;;9.97;6.93;;;1.50;99.90;;;;;;5038576;28;20892;-62
2022/01/07 05:08:19;;;;;;;11.03;7.10;;;1.50;99.90;;;;;;5056798;28;20476;-62
2022/01/07 05:10:46;;;;;;;11.30;7.20;;;1.50;99.90;;;;;;5055379;28;20486;-62
2022/01/07 05:13:13;;;;;;;11.30;6.07;;;1.40;99.90;;;;;;5041959;28;20476;-62
2022/01/07 05:15:43;;;;;;;13.40;7.40;;;1.50;99.90;;;;;;5051699;28;20501;-62
2022/01/07 05:18:11;;;;;;;13.47;7.53;;;1.40;99.90;;;;;;5037407;28;20517;-62
2022/01/07 05:20:38;;;;;;;13.50;7.37;;;1.40;99.90;;;;;;5037021;28;20521;-62
2022/01/07 05:23:08;;;;;;;12.37;6.97;;;1.40;99.90;;;;;;5039292;28;20544;-62
2022/01/07 05:25:38;;;;;;;11.57;6.80;;;1.50;99.90;;;;;;5038507;28;20466;-62
2022/01/07 05:28:06;;;;;;;11.10;6.57;;;1.50;99.90;;;;;;5037395;28;20835;-62
2022/01/07 05:30:33;;;;;;;13.23;7.73;;;1.40;99.90;;;;;;5037715;28;20617;-61
2022/01/07 05:33:00;;;;;;;10.10;7.53;;;1.40;99.90;;;;;;5050802;28;20474;-61
2022/01/07 05:35:29;;;;;;;12.43;7.20;;;1.40;99.90;;;;;;5046785;28;20565;-62
2022/01/07 05:37:56;;;;;;;11.03;6.77;;;1.40;99.90;;;;;;5048145;28;20482;-62
2022/01/07 05:40:23;;;;;;;10.90;6.90;;;1.50;99.90;;;;;;5056628;28;20467;-62
2022/01/07 05:42:51;;;;;;;11.70;8.63;;;1.50;99.90;;;;;;5053283;28;20469;-62
2022/01/07 05:45:18;;;;;;;12.10;6.37;;;1.50;99.90;;;;;;5041388;28;20963;-62
2022/01/07 05:47:45;;;;;;;16.83;7.90;;;1.40;99.90;;;;;;5040614;28;20446;-61
2022/01/07 05:50:15;;;;;;;9.33;6.97;;;1.40;99.90;;;;;;5038949;28;20584;-61
2022/01/07 05:52:42;;;;;;;10.53;6.23;;;1.40;99.90;;;;;;5049491;28;20474;-61
2022/01/07 05:55:09;;;;;;;9.33;6.37;;;1.40;99.90;;;;;;5041278;28;20474;-60
2022/01/07 05:57:36;;;;;;;10.20;7.10;;;1.30;99.90;;;;;;5043479;28;20470;-61
2022/01/07 06:00:10;;;;;;;11.77;7.40;;;1.40;99.90;;;;;;5040896;28;20801;-61
2022/01/07 06:02:37;;;;;;;9.23;7.00;;;1.30;99.90;;;;;;5040831;28;20906;-61
2022/01/07 06:05:05;;;;;;;11.03;6.97;;;1.30;99.90;;;;;;5042895;28;20532;-61
2022/01/07 06:07:32;;;;;;;9.80;6.37;;;1.30;99.90;;;;;;5044069;28;20467;-62
2022/01/07 06:09:59;;;;;;;11.67;6.40;;;1.30;99.90;;;;;;5050238;28;20903;-62
2022/01/07 06:12:27;;;;;;;10.33;7.27;;;1.30;99.90;;;;;;5047315;28;20495;-62
2022/01/07 06:14:53;;;;;;;9.87;7.67;;;1.20;99.90;;;;;;5043931;28;20822;-62
2022/01/07 06:17:22;;;;;;;11.63;6.80;;;1.20;99.90;;;;;;5041273;28;20510;-62
2022/01/07 06:19:49;;;;;;;11.50;6.80;;;1.20;99.90;;;;;;5040422;28;20828;-62
2022/01/07 06:22:16;;;;;;;9.00;6.70;;;1.20;99.90;;;;;;5045078;28;20467;-63
2022/01/07 06:24:43;;;;;;;14.10;8.87;;;1.30;99.90;;;;;;5046373;28;20463;-63
2022/01/07 06:27:10;;;;;;;9.20;7.00;;;1.30;99.90;;;;;;5041345;28;20789;-63
2022/01/07 06:29:39;;;;;;;16.90;8.40;;;1.20;99.90;;;;;;5045299;28;20463;-63
2022/01/07 06:32:07;;;;;;;12.17;7.13;;;1.20;99.90;;;;;;5040277;28;20529;-63
2022/01/07 06:34:36;;;;;;;9.17;6.83;;;1.20;99.90;;;;;;5041656;28;20475;-63
2022/01/07 06:37:04;;;;;;;10.13;7.77;;;1.20;99.90;;;;;;5039856;28;20520;-63
2022/01/07 06:39:32;;;;;;;11.23;7.60;;;1.30;99.90;;;;;;5046438;28;20498;-63
2022/01/07 06:42:00;;;;;;;10.90;6.80;;;1.30;99.90;;;;;;5040209;28;20474;-64
2022/01/07 06:44:28;;;;;;;9.80;6.37;;;1.20;99.90;;;;;;5041987;28;20513;-64
2022/01/07 06:46:55;;;;;;;12.53;6.47;;;1.20;99.90;;;;;;5042002;28;20477;-64
2022/01/07 06:49:22;;;;;;;10.70;7.07;;;1.20;99.90;;;;;;5042583;28;20478;-63
2022/01/07 06:51:51;;;;;;;11.97;6.43;;;1.30;99.90;;;;;;5044234;28;20493;-63
2022/01/07 06:54:18;;;;;;;14.40;6.90;;;1.30;99.90;;;;;;5058400;28;20776;-63
2022/01/07 06:56:46;;;;;;;14.47;6.73;;;1.30;99.90;;;;;;5041202;28;20770;-64
2022/01/07 06:59:13;;;;;;;9.90;6.60;;;1.20;99.90;;;;;;5044391;28;20481;-64
2022/01/07 07:01:41;;;;;;;10.40;7.80;;;1.20;99.90;;;;;;5039343;28;20467;-64
2022/01/07 07:04:08;;;;;;;8.93;6.30;;;1.20;99.90;;;;;;5051356;28;20501;-64
2022/01/07 07:06:35;;;;;;;9.00;6.53;;;1.20;99.90;;;;;;5046125;28;20547;-64
2022/01/07 07:09:04;;;;;;;11.27;7.30;;;1.20;99.90;;;;;;5046251;28;20475;-64
2022/01/07 07:11:31;;;;;;;9.07;6.00;;;1.20;99.90;;;;;;5041470;28;20502;-64
2022/01/07 07:13:58;;;;;;;11.30;6.87;;;1.20;99.90;;;;;;5039408;28;20470;-64
2022/01/07 07:16:25;;;;;;;12.40;6.87;;;1.20;99.90;;;;;;5045180;28;20463;-64
2022/01/07 07:18:52;;;;;;;17.50;12.60;;;1.20;99.90;;;;;;5040845;28;20503;-64
2022/01/07 07:21:23;;;;;;;19.00;11.90;;;1.20;99.90;;;;;;5040022;28;20467;-64
2022/01/07 07:23:50;;;;;;;22.47;15.30;;;1.20;99.90;;;;;;5039190;28;20466;-64
2022/01/07 07:26:18;;;;;;;13.07;10.30;;;1.20;99.90;;;;;;5039438;28;20919;-64
2022/01/07 07:28:46;;;;;;;11.70;8.20;;;1.30;99.90;;;;;;5052332;28;20466;-64
2022/01/07 07:31:16;;;;;;;16.17;12.00;;;1.30;99.90;;;;;;5044677;28;20467;-64
2022/01/07 07:36:36;;;;;;;11.37;8.13;;;1.30;99.90;;;;;;5014725;28;20473;-63
2022/01/07 07:39:06;;;;;;;10.90;8.50;;;1.40;99.90;;;;;;5039123;28;20535;-64
2022/01/07 07:41:35;;;;;;;15.00;10.53;;;1.40;99.90;;;;;;5044552;28;20470;-63
2022/01/07 07:44:05;;;;;;;10.70;8.90;;;1.40;99.90;;;;;;5038796;28;20471;-63
2022/01/07 07:46:33;;;;;;;16.90;12.00;;;1.40;99.90;;;;;;5038544;28;20480;-63
2022/01/07 07:49:01;;;;;;;11.80;9.97;;;1.40;99.90;;;;;;5041126;28;20915;-63
2022/01/07 07:51:29;;;;;;;12.60;8.43;;;1.40;99.90;;;;;;5044905;28;20578;-63
2022/01/07 07:53:59;;;;;;;10.20;7.50;;;1.50;99.90;;;;;;5056559;28;20453;-63
2022/01/07 07:56:27;;;;;;;12.43;10.30;;;1.40;99.90;;;;;;5057945;28;20497;-63
2022/01/07 07:58:57;;;;;;;14.90;8.43;;;1.40;99.90;;;;;;5049878;28;20501;-63
2022/01/07 08:01:24;;;;;;;10.40;8.13;;;1.50;99.90;;;;;;5046343;28;20519;-63
2022/01/07 08:03:51;;;;;;;12.20;9.30;;;1.50;99.90;;;;;;5050549;28;20484;-62
2022/01/07 08:06:18;;;;;;;11.27;8.60;;;1.50;99.90;;;;;;5051328;28;20876;-63
2022/01/07 08:08:46;;;;;;;12.57;8.53;;;1.50;99.90;;;;;;5041758;28;20920;-61
2022/01/07 08:11:14;;;;;;;11.43;7.87;;;1.50;99.90;;;;;;5046547;28;20497;-62
2022/01/07 08:16:27;;;;;;;15.97;8.73;;;1.40;99.90;;;;;;5052406;28;20445;-61
2022/01/07 08:18:56;;;;;;;12.83;8.60;;;1.50;99.90;;;;;;5050968;28;20440;-60
2022/01/07 08:21:25;;;;;;;13.60;9.00;;;1.50;99.90;;;;;;5051944;28;20466;-61
2022/01/07 08:23:54;;;;;;;12.20;8.97;;;1.50;99.90;;;;;;5046361;28;20463;-61
2022/01/07 08:26:21;;;;;;;19.07;14.20;;;1.50;99.90;;;;;;5052571;28;20474;-60
2022/01/07 08:28:52;;;;;;;25.17;15.20;;;1.50;99.90;;;;;;5049988;28;20478;-59
2022/01/07 08:36:50;;;;;;;11.40;8.03;;;1.60;99.90;;;;;;5048749;28;20446;-61
2022/01/07 08:39:18;;;;;;;13.37;7.80;;;1.60;99.90;;;;;;5053240;28;20478;-61
2022/01/07 08:41:45;;;;;;;13.50;8.50;;;1.60;99.90;;;;;;5053361;28;20527;-57
2022/01/07 08:44:13;;;;;;;9.80;7.73;;;1.60;99.90;;;;;;5051950;28;20829;-61
2022/01/07 08:46:40;;;;;;;15.07;8.77;;;1.70;99.90;;;;;;5050724;28;20467;-60
2022/01/07 08:49:13;;;;;;;11.20;7.90;;;1.70;99.90;;;;;;5053241;28;20470;-60
2022/01/07 08:51:40;;;;;;;9.00;7.57;;;1.70;99.90;;;;;;5053406;28;20581;-60
2022/01/07 08:54:08;;;;;;;12.60;7.77;;;1.70;99.90;;;;;;5050684;28;20892;-62
2022/01/07 08:56:35;;;;;;;16.30;8.33;;;1.70;99.90;;;;;;5050935;28;20513;-61
2022/01/07 08:59:02;;;;;;;10.97;8.23;;;1.70;99.90;;;;;;5050993;28;20519;-60
2022/01/07 09:01:33;;;;;;;11.80;7.87;;;1.70;99.90;;;;;;5050887;28;20498;-61
2022/01/07 09:04:06;;;;;;;10.97;7.93;;;1.80;99.90;;;;;;5051255;28;20908;-61
2022/01/07 09:06:36;;;;;;;14.50;7.60;;;1.80;99.90;;;;;;5049914;28;20517;-61
2022/01/07 09:09:03;;;;;;;9.53;7.33;;;1.80;99.90;;;;;;5049401;28;20437;-62
2022/01/07 09:11:32;;;;;;;12.97;6.87;;;1.80;99.90;;;;;;5049917;28;20502;-60
2022/01/07 09:13:59;;;;;;;14.13;8.20;;;1.80;99.90;;;;;;5050673;28;20760;-61
2022/01/07 09:16:30;;;;;;;10.87;7.90;;;1.80;99.90;;;;;;5049192;28;20562;-61
2022/01/07 09:18:57;;;;;;;13.50;7.90;;;1.80;99.90;;;;;;5051361;28;20528;-60
2022/01/07 09:21:24;;;;;;;14.63;9.57;;;1.90;99.90;;;;;;5051364;28;20549;-60
2022/01/07 09:23:55;;;;;;;9.80;7.07;;;1.80;99.90;;;;;;5049707;28;20503;-61
2022/01/07 09:26:22;;;;;;;11.30;7.30;;;1.90;99.90;;;;;;5049584;28;20505;-60
2022/01/07 09:28:49;;;;;;;19.67;8.63;;;1.90;99.90;;;;;;5050798;28;20789;-60
2022/01/07 09:31:18;;;;;;;12.20;6.80;;;2.00;99.90;;;;;;5049518;28;20560;-61
2022/01/07 09:33:45;;;;;;;11.23;7.10;;;2.00;99.90;;;;;;5051091;28;20838;-60
2022/01/07 09:36:12;;;;;;;18.10;7.10;;;2.10;99.90;;;;;;5051279;28;20850;-60
2022/01/07 09:38:42;;;;;;;7.63;6.90;;;2.10;99.90;;;;;;5050149;28;20916;-59
2022/01/07 09:41:10;;;;;;;12.47;6.53;;;2.10;99.90;;;;;;5049709;28;20458;-61
2022/01/07 09:43:42;;;;;;;10.77;7.40;;;2.20;99.90;;;;;;5053744;28;20466;-61
2022/01/07 09:46:14;;;;;;;12.27;7.17;;;2.10;99.90;;;;;;5051615;28;20821;-61
2022/01/07 09:48:42;;;;;;;11.93;8.20;;;2.20;99.90;;;;;;5053260;28;20906;-61
2022/01/07 09:51:09;;;;;;;10.50;6.37;;;2.20;99.90;;;;;;5051901;28;20545;-61
2022/01/07 09:53:36;;;;;;;12.60;7.17;;;2.20;99.90;;;;;;5053579;28;20545;-61
2022/01/07 09:56:04;;;;;;;11.33;6.97;;;2.20;99.90;;;;;;5052920;28;20454;-61
2022/01/07 09:58:34;;;;;;;11.83;7.67;;;2.30;99.90;;;;;;5053920;28;21631;-61
2022/01/07 10:01:02;;;;;;;11.73;6.57;;;2.20;99.90;;;;;;5051747;28;20752;-61
2022/01/07 10:03:39;;;;;;;9.03;7.63;;;2.20;99.90;;;;;;5053114;28;20461;-61
2022/01/07 10:06:18;;;;;;;11.93;7.93;;;2.20;99.90;;;;;;5051016;28;20473;-61
2022/01/07 10:08:47;;;;;;;11.03;6.67;;;2.20;99.90;;;;;;5041957;28;20562;-61
2022/01/07 10:11:16;;;;;;;10.27;6.77;;;2.30;99.90;;;;;;5039117;28;20465;-61
2022/01/07 10:13:49;;;;;;;17.03;8.20;;;2.30;99.90;;;;;;5039662;28;20467;-61
2022/01/07 10:16:18;;;;;;;9.73;6.40;;;2.30;99.90;;;;;;5042189;28;20570;-61
2022/01/07 10:18:47;;;;;;;8.07;6.43;;;2.30;99.90;;;;;;5037186;28;20474;-61
2022/01/07 10:21:15;;;;;;;14.93;7.57;;;2.40;99.90;;;;;;5051569;28;20474;-61
2022/01/07 10:23:44;;;;;;;7.90;6.50;;;2.40;99.90;;;;;;5044039;28;20507;-61
2022/01/07 10:26:16;;;;;;;8.20;6.40;;;2.30;99.90;;;;;;5038848;28;20783;-61
2022/01/07 10:28:44;;;;;;;11.33;6.63;;;2.40;99.90;;;;;;5039209;28;20446;-61
2022/01/07 10:31:21;;;;;;;10.73;7.20;;;2.40;99.90;;;;;;5041878;28;20888;-61
2022/01/07 10:33:49;;;;;;;8.83;6.77;;;2.50;99.90;;;;;;5045016;28;20474;-62
2022/01/07 10:36:20;;;;;;;7.70;5.90;;;2.50;99.90;;;;;;5043267;28;20467;-61
2022/01/07 10:38:51;;;;;;;8.27;6.00;;;2.50;99.90;;;;;;5040223;28;20470;-61
2022/01/07 10:41:18;;;;;;;8.10;6.00;;;2.40;99.90;;;;;;5040714;28;20529;-61
2022/01/07 10:43:51;;;;;;;8.93;6.70;;;2.40;99.90;;;;;;5044535;28;20470;-61
2022/01/07 10:46:24;;;;;;;7.33;5.80;;;2.40;99.90;;;;;;5040384;28;20467;-61
2022/01/07 10:48:54;;;;;;;7.17;6.03;;;2.40;99.90;;;;;;5040777;28;20471;-62
2022/01/07 10:51:25;;;;;;;7.83;5.97;;;2.50;99.90;;;;;;5040940;28;20901;-61
2022/01/07 10:53:55;;;;;;;9.20;5.53;;;2.50;99.90;;;;;;5057868;28;20474;-61
2022/01/07 10:56:23;;;;;;;6.73;5.57;;;2.50;99.90;;;;;;5058641;28;20462;-61
2022/01/07 10:59:04;;;;;;;14.30;6.70;;;2.60;99.90;;;;;;5044819;28;20477;-61
2022/01/07 11:01:39;;;;;;;6.33;5.50;;;2.60;99.90;;;;;;5055079;28;20465;-61
2022/01/07 11:04:11;;;;;;;5.97;5.10;;;2.60;99.90;;;;;;5058768;28;20470;-62
2022/01/07 11:06:40;;;;;;;9.13;5.70;;;2.60;99.90;;;;;;5042814;28;20517;-61
2022/01/07 11:09:09;;;;;;;7.60;5.87;;;2.60;99.90;;;;;;5045889;28;20485;-60
2022/01/07 11:11:45;;;;;;;10.13;5.50;;;2.70;99.90;;;;;;5043463;28;20486;-62
2022/01/07 11:14:16;;;;;;;7.87;5.23;;;2.70;99.90;;;;;;5052316;28;20465;-61
2022/01/07 11:16:44;;;;;;;13.47;6.40;;;2.70;99.90;;;;;;5041358;28;20537;-61
2022/01/07 11:19:13;;;;;;;8.70;5.60;;;2.70;99.90;;;;;;5040165;28;20491;-61
2022/01/07 11:21:41;;;;;;;5.90;4.80;;;2.80;99.90;;;;;;5041350;28;20490;-62
2022/01/07 11:24:41;;;;;;;8.17;4.20;;;2.70;99.90;;;;;;5058068;28;20565;-61
2022/01/07 11:27:15;;;;;;;5.27;4.30;;;2.80;99.90;;;;;;5041099;28;20467;-60
2022/01/07 11:30:10;;;;;;;9.10;4.83;;;2.80;99.90;;;;;;5041513;28;20474;-61
2022/01/07 11:32:41;;;;;;;10.30;4.30;;;2.80;99.90;;;;;;5053120;28;20790;-61
2022/01/07 11:35:47;;;;;;;5.87;4.43;;;2.90;99.90;;;;;;5049765;28;20817;-61
2022/01/07 11:38:38;;;;;;;4.60;3.70;;;2.80;99.90;;;;;;5040631;28;20467;-61
2022/01/07 11:41:18;;;;;;;4.57;3.60;;;2.90;99.90;;;;;;5042599;28;20444;-62
2022/01/07 11:43:49;;;;;;;4.83;3.60;;;3.00;99.90;;;;;;5039282;28;20566;-60
2022/01/07 11:46:32;;;;;;;5.63;4.50;;;3.00;99.90;;;;;;5039424;28;20471;-58
2022/01/07 11:49:05;;;;;;;4.97;4.27;;;3.10;99.90;;;;;;5047789;28;20550;-58
2022/01/07 11:51:43;;;;;;;4.40;4.00;;;3.00;99.90;;;;;;5047177;28;20473;-58
2022/01/07 11:54:16;;;;;;;6.80;4.27;;;3.10;99.90;;;;;;5038932;28;20515;-59
2022/01/07 11:56:45;;;;;;;6.73;4.40;;;3.10;99.90;;;;;;5039478;28;20881;-58
2022/01/07 11:59:19;;;;;;;4.47;4.07;;;3.10;99.90;;;;;;5041936;28;20503;-60
2022/01/07 12:02:12;;;;;;;5.27;4.10;;;3.20;99.90;;;;;;5042386;28;20490;-60
2022/01/07 12:04:41;;;;;;;5.53;4.70;;;3.20;99.90;;;;;;5021276;28;20879;-59
2022/01/07 12:07:09;;;;;;;5.50;4.13;;;3.20;99.90;;;;;;5040495;28;20463;-58
2022/01/07 12:09:43;;;;;;;5.73;4.37;;;3.20;99.90;;;;;;5041584;28;20895;-60
2022/01/07 12:12:17;;;;;;;4.83;3.87;;;3.20;99.90;;;;;;5041791;28;20585;-58
2022/01/07 12:14:52;;;;;;;4.73;3.97;;;3.30;99.90;;;;;;5041002;28;20467;-60
2022/01/07 12:17:21;;;;;;;4.20;3.67;;;3.30;99.90;;;;;;5039467;28;20462;-60
2022/01/07 12:20:18;;;;;;;4.40;4.00;;;3.40;99.90;;;;;;5045063;28;20471;-60
2022/01/07 12:22:55;;;;;;;6.43;5.83;;;3.50;99.90;;;;;;5048252;28;20448;-58
2022/01/07 12:25:25;;;;;;;4.30;3.70;;;3.40;99.90;;;;;;5041651;28;20466;-59
2022/01/07 12:28:09;;;;;;;4.30;3.53;;;3.50;99.90;;;;;;5040918;28;20466;-61
2022/01/07 12:30:39;;;;;;;4.20;3.80;;;3.40;99.90;;;;;;5050011;28;20440;-62
2022/01/07 12:33:08;;;;;;;4.47;3.63;;;3.40;99.90;;;;;;5050366;28;20820;-62
2022/01/07 12:35:35;;;;;;;4.50;3.67;;;3.30;99.90;;;;;;5042083;28;20559;-62
2022/01/07 12:38:21;;;;;;;4.90;3.63;;;3.30;99.90;;;;;;5041374;28;20491;-62
2022/01/07 12:40:57;;;;;;;5.30;4.17;;;3.30;99.90;;;;;;5043416;28;20462;-61
2022/01/07 12:43:32;;;;;;;5.33;3.70;;;3.30;99.90;;;;;;5046379;28;20745;-62
2022/01/07 12:46:00;;;;;;;5.50;4.30;;;3.30;99.90;;;;;;5044411;28;20483;-60
2022/01/07 12:48:32;;;;;;;4.43;4.03;;;3.30;99.90;;;;;;5043068;28;20505;-61
2022/01/07 12:51:01;;;;;;;4.33;3.90;;;3.30;99.90;;;;;;5038694;28;20529;-60
2022/01/07 12:53:30;;;;;;;4.87;3.80;;;3.20;99.90;;;;;;5039816;28;20537;-58
2022/01/07 12:55:57;;;;;;;6.27;3.87;;;3.30;99.90;;;;;;5038170;28;20788;-58
2022/01/07 12:58:28;;;;;;;5.47;4.80;;;3.30;99.90;;;;;;5037268;28;20525;-62
2022/01/07 13:00:55;;;;;;;5.47;3.80;;;3.30;99.90;;;;;;5051618;28;20462;-61
2022/01/07 13:03:26;;;;;;;7.73;4.87;;;3.30;99.90;;;;;;5052589;28;20871;-60
2022/01/07 13:06:04;;;;;;;5.73;3.60;;;3.30;99.90;;;;;;5049650;28;20508;-60
2022/01/07 13:08:37;;;;;;;5.10;4.60;;;3.40;99.90;;;;;;5053150;28;20535;-61
2022/01/07 13:11:03;;;;;;;5.63;4.43;;;3.40;99.90;;;;;;5051494;28;20551;-62
2022/01/07 13:13:30;;;;;;;6.23;4.23;;;3.40;99.90;;;;;;5049298;28;20539;-60